Time;durP1;ratioP1;P1;durP2;ratioP2;P2;SDS_P1;SDS_P2;PMS_P1;PMS_P2;Temp;Humidity;BMP_temperature;BMP_pressure;BME280_temperature;BME280_humidity;BME280_pressure;Samples;Min_cycle;Max_cycle;Signal;HPM_P1;HPM_P2
2023/03/09 00:00:21;;;;;;;10.80;6.30;;;;;;;;;;7391618;19;20013;-72
2023/03/09 00:02:47;;;;;;;10.57;7.20;;;;;;;;;;7389762;19;19999;-71
2023/03/09 00:05:15;;;;;;;11.85;6.88;;;;;;;;;;7390592;19;20006;-73
2023/03/09 00:07:41;;;;;;;9.35;5.80;;;;;;;;;;7390520;19;20006;-73
2023/03/09 00:10:06;;;;;;;12.88;7.15;;;;;;;;;;7388716;19;20476;-73
2023/03/09 00:12:32;;;;;;;10.93;6.40;;;;;;;;;;7386944;19;20002;-73
2023/03/09 00:14:57;;;;;;;11.45;6.93;;;;;;;;;;7389224;19;19995;-73
2023/03/09 00:17:23;;;;;;;11.95;6.60;;;;;;;;;;7390550;19;19999;-73
2023/03/09 00:19:48;;;;;;;12.23;7.43;;;;;;;;;;7390074;19;20330;-73
2023/03/09 00:22:13;;;;;;;11.93;6.53;;;;;;;;;;7388211;19;20018;-73
2023/03/09 00:24:45;;;;;;;11.90;6.38;;;;;;;;;;7386443;19;20028;-73
2023/03/09 00:27:11;;;;;;;10.15;6.45;;;;;;;;;;7388459;19;20006;-73
2023/03/09 00:29:36;;;;;;;11.20;6.32;;;;;;;;;;7390119;19;20058;-73
2023/03/09 00:32:02;;;;;;;10.93;5.28;;;;;;;;;;7389562;19;20003;-72
2023/03/09 00:34:27;;;;;;;8.55;4.80;;;;;;;;;;7388012;19;20015;-72
2023/03/09 00:36:53;;;;;;;7.72;4.88;;;;;;;;;;7389633;19;20475;-72
2023/03/09 00:39:18;;;;;;;7.72;4.55;;;;;;;;;;7389514;19;20010;-72
2023/03/09 00:41:44;;;;;;;8.30;4.45;;;;;;;;;;7389889;19;20006;-72
2023/03/09 00:44:10;;;;;;;7.90;3.97;;;;;;;;;;7387790;19;20021;-72
2023/03/09 00:46:36;;;;;;;6.88;4.00;;;;;;;;;;7388122;19;20022;-72
2023/03/09 00:49:05;;;;;;;7.32;3.53;;;;;;;;;;7389441;19;20011;-72
2023/03/09 00:51:32;;;;;;;9.30;4.18;;;;;;;;;;7391203;19;20531;-72
2023/03/09 00:53:57;;;;;;;7.07;4.03;;;;;;;;;;7387449;19;20027;-72
2023/03/09 00:56:29;;;;;;;6.07;3.67;;;;;;;;;;7389322;19;19998;-72
2023/03/09 00:58:55;;;;;;;8.23;3.55;;;;;;;;;;7389225;19;20007;-72
2023/03/09 01:01:21;;;;;;;6.03;3.20;;;;;;;;;;7389556;19;20003;-72
2023/03/09 01:03:47;;;;;;;6.05;3.88;;;;;;;;;;7385771;19;20026;-72
2023/03/09 01:06:13;;;;;;;9.93;5.13;;;;;;;;;;7387528;19;20001;-73
2023/03/09 01:08:39;;;;;;;11.00;5.28;;;;;;;;;;7388835;19;20006;-71
2023/03/09 01:11:06;;;;;;;8.60;3.55;;;;;;;;;;7393450;19;20002;-72
2023/03/09 01:13:32;;;;;;;7.63;3.20;;;;;;;;;;7384884;19;20012;-73
2023/03/09 01:15:57;;;;;;;6.10;3.25;;;;;;;;;;7386591;19;20003;-73
2023/03/09 01:18:23;;;;;;;5.80;3.38;;;;;;;;;;7388590;19;20025;-74
2023/03/09 01:20:48;;;;;;;7.70;3.30;;;;;;;;;;7388427;19;20464;-74
2023/03/09 01:23:13;;;;;;;5.03;2.58;;;;;;;;;;7387458;19;20477;-73
2023/03/09 01:25:39;;;;;;;5.05;2.95;;;;;;;;;;7387675;19;20066;-73
2023/03/09 01:28:04;;;;;;;5.85;2.97;;;;;;;;;;7388485;19;20054;-73
2023/03/09 01:30:31;;;;;;;5.50;3.10;;;;;;;;;;7386584;19;20057;-73
2023/03/09 01:32:56;;;;;;;6.60;2.97;;;;;;;;;;7386343;19;20069;-75
2023/03/09 01:35:21;;;;;;;5.28;3.22;;;;;;;;;;7386180;19;20029;-74
2023/03/09 01:37:47;;;;;;;5.10;3.28;;;;;;;;;;7385833;19;20006;-74
2023/03/09 01:40:17;;;;;;;6.38;2.88;;;;;;;;;;7387764;19;20024;-74
2023/03/09 01:42:42;;;;;;;14.15;1.98;;;;;;;;;;7387292;19;20449;-73
2023/03/09 01:45:20;;;;;;;2.40;1.67;;;;;;;;;;7386008;19;20003;-71
2023/03/09 01:47:46;;;;;;;2.45;1.52;;;;;;;;;;7387201;19;19999;-71
2023/03/09 01:50:17;;;;;;;2.92;1.70;;;;;;;;;;7387276;19;20014;-71
2023/03/09 01:52:46;;;;;;;3.00;1.80;;;;;;;;;;7387779;19;20006;-74
2023/03/09 01:55:15;;;;;;;3.92;1.88;;;;;;;;;;7383876;19;19995;-70
2023/03/09 01:57:46;;;;;;;4.13;2.30;;;;;;;;;;7386628;19;19994;-71
2023/03/09 02:00:20;;;;;;;3.15;1.90;;;;;;;;;;7385830;19;20032;-70
2023/03/09 02:02:59;;;;;;;2.90;1.70;;;;;;;;;;7386202;19;20328;-72
2023/03/09 02:05:51;;;;;;;3.53;1.95;;;;;;;;;;7385552;19;19991;-72
2023/03/09 02:08:18;;;;;;;3.47;2.20;;;;;;;;;;7385736;19;20532;-71
2023/03/09 02:10:58;;;;;;;4.97;2.40;;;;;;;;;;7387309;19;20015;-70
2023/03/09 02:13:30;;;;;;;5.68;2.95;;;;;;;;;;7384325;19;20074;-71
2023/03/09 02:15:55;;;;;;;6.90;3.03;;;;;;;;;;7386374;19;20457;-70
2023/03/09 02:18:21;;;;;;;6.75;3.60;;;;;;;;;;7384396;19;20003;-71
2023/03/09 02:21:07;;;;;;;5.28;3.13;;;;;;;;;;7386233;19;20007;-71
2023/03/09 02:23:53;;;;;;;8.15;3.47;;;;;;;;;;7385232;19;20065;-71
2023/03/09 02:26:38;;;;;;;6.03;2.80;;;;;;;;;;7386306;19;19999;-71
2023/03/09 02:29:03;;;;;;;6.30;2.90;;;;;;;;;;7385989;19;20005;-71
2023/03/09 02:31:29;;;;;;;5.97;2.72;;;;;;;;;;7385951;19;19998;-71
2023/03/09 02:33:54;;;;;;;5.55;3.00;;;;;;;;;;7381500;19;20062;-71
2023/03/09 02:36:21;;;;;;;5.50;2.90;;;;;;;;;;7384421;19;19998;-71
2023/03/09 02:38:47;;;;;;;7.10;3.15;;;;;;;;;;7393012;19;19999;-71
2023/03/09 02:41:13;;;;;;;7.35;3.60;;;;;;;;;;7393479;19;20037;-71
2023/03/09 02:43:50;;;;;;;6.43;3.03;;;;;;;;;;7391117;19;20033;-71
2023/03/09 02:46:15;;;;;;;4.82;2.75;;;;;;;;;;7390641;19;20494;-72
2023/03/09 02:48:41;;;;;;;5.88;2.53;;;;;;;;;;7390123;19;19995;-71
2023/03/09 02:51:07;;;;;;;6.15;3.03;;;;;;;;;;7389640;19;20001;-71
2023/03/09 02:53:33;;;;;;;3.80;2.00;;;;;;;;;;7390599;19;20003;-71
2023/03/09 02:55:58;;;;;;;3.25;1.83;;;;;;;;;;7390623;19;20002;-72
2023/03/09 02:58:24;;;;;;;3.17;1.35;;;;;;;;;;7388289;19;20001;-71
2023/03/09 03:00:49;;;;;;;3.90;1.50;;;;;;;;;;7389039;19;20099;-71
2023/03/09 03:03:14;;;;;;;2.42;1.40;;;;;;;;;;7395153;19;20018;-72
2023/03/09 03:05:40;;;;;;;2.78;1.00;;;;;;;;;;7395771;19;19995;-71
2023/03/09 03:08:05;;;;;;;2.38;1.10;;;;;;;;;;7396906;19;20005;-72
2023/03/09 03:10:30;;;;;;;5.45;1.35;;;;;;;;;;7391466;19;20082;-72
2023/03/09 03:12:56;;;;;;;1.35;0.70;;;;;;;;;;7390876;19;20078;-71
2023/03/09 03:15:24;;;;;;;1.55;0.90;;;;;;;;;;7390273;19;20019;-72
2023/03/09 03:17:49;;;;;;;1.83;0.80;;;;;;;;;;7394500;19;20363;-72
2023/03/09 03:20:14;;;;;;;1.80;0.80;;;;;;;;;;7392212;19;20062;-72
2023/03/09 03:22:45;;;;;;;0.50;0.50;;;;;;;;;;7393194;19;19999;-71
2023/03/09 03:25:11;;;;;;;1.75;0.80;;;;;;;;;;7388997;19;20002;-71
2023/03/09 03:27:36;;;;;;;0.60;0.50;;;;;;;;;;7392564;19;20003;-72
2023/03/09 03:30:02;;;;;;;2.00;0.90;;;;;;;;;;7391637;19;19994;-71
2023/03/09 03:32:28;;;;;;;1.77;1.00;;;;;;;;;;7390839;19;20078;-71
2023/03/09 03:34:54;;;;;;;0.90;0.65;;;;;;;;;;7389462;19;20027;-71
2023/03/09 03:37:19;;;;;;;0.55;0.55;;;;;;;;;;7390489;19;20082;-72
2023/03/09 03:39:44;;;;;;;0.60;0.57;;;;;;;;;;7391799;19;20050;-71
2023/03/09 03:42:10;;;;;;;1.85;0.75;;;;;;;;;;7391472;19;20002;-70
2023/03/09 03:44:35;;;;;;;0.55;0.50;;;;;;;;;;7389134;19;20003;-71
2023/03/09 03:47:00;;;;;;;0.95;0.75;;;;;;;;;;7390954;19;20006;-70
2023/03/09 03:49:26;;;;;;;1.58;0.60;;;;;;;;;;7388219;19;20371;-72
2023/03/09 03:51:57;;;;;;;0.43;0.43;;;;;;;;;;7389555;19;20028;-71
2023/03/09 03:54:34;;;;;;;;;;;;;;;;;;7387744;19;20020;-71
2023/03/09 03:57:03;;;;;;;1.60;1.00;;;;;;;;;;7389369;19;19922;-71
2023/03/09 03:59:32;;;;;;;1.20;1.10;;;;;;;;;;7390930;19;20500;-75
2023/03/09 04:01:57;;;;;;;1.33;0.90;;;;;;;;;;7388400;19;20007;-71
2023/03/09 04:04:22;;;;;;;1.40;0.65;;;;;;;;;;7387185;19;20376;-71
2023/03/09 04:06:48;;;;;;;1.48;0.98;;;;;;;;;;7388845;19;20395;-70
2023/03/09 04:09:13;;;;;;;0.95;0.85;;;;;;;;;;7388129;19;20369;-71
2023/03/09 04:11:38;;;;;;;0.73;0.73;;;;;;;;;;7390434;19;19999;-71
2023/03/09 04:14:03;;;;;;;2.05;0.80;;;;;;;;;;7387047;19;20003;-70
2023/03/09 04:16:29;;;;;;;1.65;0.98;;;;;;;;;;7389957;19;20498;-71
2023/03/09 04:18:54;;;;;;;1.65;0.75;;;;;;;;;;7389642;19;20010;-72
2023/03/09 04:21:19;;;;;;;1.23;1.08;;;;;;;;;;7389819;19;20002;-71
2023/03/09 04:23:47;;;;;;;0.63;0.63;;;;;;;;;;7388349;19;20107;-70
2023/03/09 04:26:13;;;;;;;1.98;1.10;;;;;;;;;;7389569;19;20010;-70
2023/03/09 04:28:38;;;;;;;2.95;1.48;;;;;;;;;;7389149;19;20016;-70
2023/03/09 04:31:03;;;;;;;2.28;1.05;;;;;;;;;;7389682;19;20006;-70
2023/03/09 04:33:29;;;;;;;1.83;1.40;;;;;;;;;;7387251;19;19998;-70
2023/03/09 04:35:54;;;;;;;5.25;3.00;;;;;;;;;;7389565;19;20006;-72
2023/03/09 04:38:28;;;;;;;3.42;1.50;;;;;;;;;;7389536;19;20455;-71
2023/03/09 04:40:54;;;;;;;2.13;0.90;;;;;;;;;;7389393;19;20374;-71
2023/03/09 04:43:19;;;;;;;1.70;1.00;;;;;;;;;;7388467;19;20058;-70
2023/03/09 04:45:44;;;;;;;2.15;1.25;;;;;;;;;;7389187;19;20003;-72
2023/03/09 04:48:10;;;;;;;3.10;1.58;;;;;;;;;;7391831;19;20448;-71
2023/03/09 04:50:35;;;;;;;3.35;1.52;;;;;;;;;;7389047;19;20002;-71
2023/03/09 04:53:00;;;;;;;2.75;1.30;;;;;;;;;;7388120;19;20002;-70
2023/03/09 04:55:26;;;;;;;1.63;1.20;;;;;;;;;;7394024;19;19997;-70
2023/03/09 04:57:51;;;;;;;2.58;1.10;;;;;;;;;;7389392;19;20067;-72
2023/03/09 05:00:17;;;;;;;3.42;1.30;;;;;;;;;;7386229;19;19998;-71
2023/03/09 05:02:43;;;;;;;3.65;1.40;;;;;;;;;;7389641;19;20006;-71
2023/03/09 05:05:09;;;;;;;2.38;1.20;;;;;;;;;;7385857;19;20038;-71
2023/03/09 05:07:35;;;;;;;4.68;1.10;;;;;;;;;;7388168;19;20010;-69
2023/03/09 05:10:01;;;;;;;2.45;1.02;;;;;;;;;;7389204;19;20014;-70
2023/03/09 05:12:31;;;;;;;3.58;1.30;;;;;;;;;;7383418;19;19995;-71
2023/03/09 05:14:57;;;;;;;5.57;2.40;;;;;;;;;;7384815;19;19998;-70
2023/03/09 05:17:22;;;;;;;3.58;1.50;;;;;;;;;;7387623;19;20028;-69
2023/03/09 05:19:48;;;;;;;2.42;1.40;;;;;;;;;;7383514;19;19995;-72
2023/03/09 05:22:13;;;;;;;2.75;0.93;;;;;;;;;;7387568;19;19995;-72
2023/03/09 05:24:39;;;;;;;2.15;1.20;;;;;;;;;;7386277;19;19999;-71
2023/03/09 05:27:04;;;;;;;2.65;1.55;;;;;;;;;;7383422;19;19998;-71
2023/03/09 05:29:29;;;;;;;3.28;1.40;;;;;;;;;;7384338;19;19998;-71
2023/03/09 05:31:55;;;;;;;3.55;1.52;;;;;;;;;;7383668;19;20003;-71
2023/03/09 05:34:21;;;;;;;6.03;1.52;;;;;;;;;;7384348;19;20363;-72
2023/03/09 05:36:46;;;;;;;8.63;1.38;;;;;;;;;;7391556;19;19995;-70
2023/03/09 05:39:11;;;;;;;3.58;1.40;;;;;;;;;;7387437;19;20003;-73
2023/03/09 05:41:39;;;;;;;7.10;1.65;;;;;;;;;;7387479;19;19990;-72
2023/03/09 05:44:04;;;;;;;5.00;1.60;;;;;;;;;;7385386;19;20006;-72
2023/03/09 05:46:30;;;;;;;7.13;1.48;;;;;;;;;;7387184;19;20442;-72
2023/03/09 05:48:55;;;;;;;4.28;1.90;;;;;;;;;;7385223;19;19998;-71
2023/03/09 05:51:20;;;;;;;6.70;1.40;;;;;;;;;;7386456;19;19999;-71
2023/03/09 05:53:46;;;;;;;4.78;1.73;;;;;;;;;;7388051;19;19995;-71
2023/03/09 05:56:12;;;;;;;8.38;1.42;;;;;;;;;;7390883;19;20003;-71
2023/03/09 05:58:37;;;;;;;5.68;1.45;;;;;;;;;;7384828;19;20003;-70
2023/03/09 06:01:02;;;;;;;5.68;1.50;;;;;;;;;;7387155;19;19997;-65
2023/03/09 06:03:28;;;;;;;4.28;1.60;;;;;;;;;;7382230;19;20136;-73
2023/03/09 06:06:05;;;;;;;5.57;1.45;;;;;;;;;;7385762;19;20020;-75
2023/03/09 06:08:30;;;;;;;5.25;1.55;;;;;;;;;;7389218;19;20006;-73
2023/03/09 06:11:00;;;;;;;7.25;1.80;;;;;;;;;;7387630;19;19990;-74
2023/03/09 06:13:26;;;;;;;7.70;1.88;;;;;;;;;;7393733;19;20086;-72
2023/03/09 06:15:51;;;;;;;5.50;1.90;;;;;;;;;;7394434;19;20011;-72
2023/03/09 06:18:17;;;;;;;5.43;1.48;;;;;;;;;;7396884;19;19991;-72
2023/03/09 06:20:43;;;;;;;7.60;1.77;;;;;;;;;;7397531;19;19991;-72
2023/03/09 06:23:08;;;;;;;6.07;1.77;;;;;;;;;;7395994;19;20079;-72
2023/03/09 06:25:35;;;;;;;6.50;2.10;;;;;;;;;;7395871;19;19994;-72
2023/03/09 06:28:00;;;;;;;9.73;4.72;;;;;;;;;;7396013;19;20074;-72
2023/03/09 06:30:26;;;;;;;14.27;4.53;;;;;;;;;;7397050;19;20019;-73
2023/03/09 06:32:52;;;;;;;13.07;2.40;;;;;;;;;;7393968;19;20379;-72
2023/03/09 06:35:18;;;;;;;8.82;2.22;;;;;;;;;;7392797;19;20330;-73
2023/03/09 06:37:43;;;;;;;9.23;2.00;;;;;;;;;;7394512;19;20001;-72
2023/03/09 06:40:12;;;;;;;6.88;2.70;;;;;;;;;;7394327;19;20070;-72
2023/03/09 06:42:38;;;;;;;11.20;2.38;;;;;;;;;;7396359;19;20002;-71
2023/03/09 06:45:04;;;;;;;9.68;2.17;;;;;;;;;;7390020;19;20002;-73
2023/03/09 06:47:29;;;;;;;12.77;2.40;;;;;;;;;;7394584;19;20024;-73
2023/03/09 06:49:55;;;;;;;11.25;2.55;;;;;;;;;;7395681;19;20022;-72
2023/03/09 06:52:20;;;;;;;13.68;2.75;;;;;;;;;;7392823;19;19990;-73
2023/03/09 06:54:45;;;;;;;9.60;2.20;;;;;;;;;;7394270;19;20015;-73
2023/03/09 06:57:11;;;;;;;6.55;2.05;;;;;;;;;;7394061;19;19995;-73
2023/03/09 06:59:36;;;;;;;9.38;2.08;;;;;;;;;;7393513;19;20006;-72
2023/03/09 07:02:02;;;;;;;13.65;3.38;;;;;;;;;;7393796;19;20422;-72
2023/03/09 07:04:27;;;;;;;11.40;3.50;;;;;;;;;;7394676;19;20361;-73
2023/03/09 07:06:52;;;;;;;14.82;3.55;;;;;;;;;;7396089;19;20058;-72
2023/03/09 07:09:18;;;;;;;11.13;3.58;;;;;;;;;;7395529;19;19999;-71
2023/03/09 07:11:43;;;;;;;11.93;3.70;;;;;;;;;;7395612;19;20034;-72
2023/03/09 07:14:08;;;;;;;8.35;3.10;;;;;;;;;;7390893;19;20015;-77
2023/03/09 07:16:34;;;;;;;11.02;3.35;;;;;;;;;;7397158;19;20070;-78
2023/03/09 07:18:59;;;;;;;7.72;3.05;;;;;;;;;;7397220;19;20012;-78
2023/03/09 07:21:24;;;;;;;10.13;3.33;;;;;;;;;;7395146;19;20019;-78
2023/03/09 07:23:50;;;;;;;10.68;3.60;;;;;;;;;;7393218;19;19998;-78
2023/03/09 07:26:15;;;;;;;10.32;3.08;;;;;;;;;;7395778;19;20002;-78
2023/03/09 07:28:40;;;;;;;13.20;3.38;;;;;;;;;;7395054;19;20110;-78
2023/03/09 07:31:11;;;;;;;10.43;3.75;;;;;;;;;;7393595;19;19998;-78
2023/03/09 07:33:37;;;;;;;6.93;2.50;;;;;;;;;;7392041;19;20013;-79
2023/03/09 07:36:04;;;;;;;8.25;3.33;;;;;;;;;;7394485;19;20007;-79
2023/03/09 07:38:29;;;;;;;7.20;3.35;;;;;;;;;;7395687;19;20027;-77
2023/03/09 07:40:57;;;;;;;6.47;2.88;;;;;;;;;;7392741;19;19995;-78
2023/03/09 07:43:22;;;;;;;8.38;3.15;;;;;;;;;;7394164;19;20009;-77
2023/03/09 07:45:47;;;;;;;6.25;2.70;;;;;;;;;;7394204;19;19998;-78
2023/03/09 07:48:13;;;;;;;6.85;2.95;;;;;;;;;;7395143;19;20026;-77
2023/03/09 07:50:39;;;;;;;13.52;2.97;;;;;;;;;;7394316;19;19998;-78
2023/03/09 07:53:04;;;;;;;4.28;2.42;;;;;;;;;;7391037;19;20003;-78
2023/03/09 07:55:34;;;;;;;8.07;2.95;;;;;;;;;;7391460;19;19998;-78
2023/03/09 07:57:59;;;;;;;7.95;2.85;;;;;;;;;;7394095;19;20002;-77
2023/03/09 08:00:27;;;;;;;9.32;2.40;;;;;;;;;;7393517;19;20070;-76
2023/03/09 08:02:53;;;;;;;5.82;2.40;;;;;;;;;;7393774;19;19994;-77
2023/03/09 08:05:18;;;;;;;4.45;1.90;;;;;;;;;;7391215;19;20358;-76
2023/03/09 08:07:46;;;;;;;6.95;1.92;;;;;;;;;;7391417;19;20005;-76
2023/03/09 08:10:13;;;;;;;7.72;2.55;;;;;;;;;;7392135;19;20013;-77
2023/03/09 08:12:39;;;;;;;5.82;2.13;;;;;;;;;;7393424;19;20022;-77
2023/03/09 08:15:05;;;;;;;4.97;1.83;;;;;;;;;;7389606;19;20127;-77
2023/03/09 08:17:31;;;;;;;3.42;1.77;;;;;;;;;;7391758;19;19999;-77
2023/03/09 08:19:56;;;;;;;2.60;1.50;;;;;;;;;;7394380;19;20026;-77
2023/03/09 08:22:22;;;;;;;5.40;1.80;;;;;;;;;;7394164;19;20420;-77
2023/03/09 08:24:47;;;;;;;5.28;1.80;;;;;;;;;;7393174;19;20426;-80
2023/03/09 08:27:12;;;;;;;2.90;1.88;;;;;;;;;;7392075;19;20392;-79
2023/03/09 08:29:39;;;;;;;5.10;1.88;;;;;;;;;;7394250;19;20027;-79
2023/03/09 08:32:09;;;;;;;4.80;2.25;;;;;;;;;;7394291;19;20005;-77
2023/03/09 08:34:35;;;;;;;4.43;2.17;;;;;;;;;;7391347;19;20003;-78
2023/03/09 08:37:00;;;;;;;3.55;1.92;;;;;;;;;;7390008;19;20022;-79
2023/03/09 08:39:26;;;;;;;5.32;1.70;;;;;;;;;;7396958;19;19999;-78
2023/03/09 08:41:51;;;;;;;4.18;1.70;;;;;;;;;;7397873;19;20003;-78
2023/03/09 08:44:16;;;;;;;4.25;1.73;;;;;;;;;;7396541;19;20006;-78
2023/03/09 08:46:42;;;;;;;3.33;1.80;;;;;;;;;;7394690;19;19999;-78
2023/03/09 08:49:07;;;;;;;2.45;1.40;;;;;;;;;;7386214;19;20007;-80
2023/03/09 08:51:32;;;;;;;5.60;1.73;;;;;;;;;;7392300;19;20003;-80
2023/03/09 08:53:58;;;;;;;6.20;1.65;;;;;;;;;;7390746;19;20006;-81
2023/03/09 08:56:23;;;;;;;3.58;1.45;;;;;;;;;;7399079;19;20019;-81
2023/03/09 08:58:48;;;;;;;4.07;1.25;;;;;;;;;;7393453;19;20006;-81
2023/03/09 09:01:14;;;;;;;4.45;1.58;;;;;;;;;;7393511;19;20013;-80
2023/03/09 09:03:39;;;;;;;5.50;1.50;;;;;;;;;;7390630;19;20030;-79
2023/03/09 09:06:11;;;;;;;6.93;1.45;;;;;;;;;;7391461;19;19999;-79
2023/03/09 09:08:38;;;;;;;3.53;1.35;;;;;;;;;;7395151;19;20033;-80
2023/03/09 09:11:08;;;;;;;5.97;1.80;;;;;;;;;;7387783;19;20001;-81
2023/03/09 09:13:34;;;;;;;3.13;1.55;;;;;;;;;;7388907;19;20019;-83
2023/03/09 09:16:00;;;;;;;6.95;1.38;;;;;;;;;;7390973;19;20333;-81
2023/03/09 09:18:26;;;;;;;3.92;1.40;;;;;;;;;;7386887;19;20450;-81
2023/03/09 09:20:51;;;;;;;4.90;1.40;;;;;;;;;;7390969;19;20342;-81
2023/03/09 09:23:17;;;;;;;3.55;1.27;;;;;;;;;;7392167;19;20019;-81
2023/03/09 09:25:42;;;;;;;3.78;1.30;;;;;;;;;;7392327;19;19999;-82
2023/03/09 09:28:07;;;;;;;4.35;1.50;;;;;;;;;;7393150;19;20002;-82
2023/03/09 09:30:33;;;;;;;4.60;1.98;;;;;;;;;;7393059;19;20325;-82
2023/03/09 09:32:59;;;;;;;2.92;1.02;;;;;;;;;;7390655;19;20489;-82
2023/03/09 09:35:25;;;;;;;3.50;1.15;;;;;;;;;;7393251;19;20006;-83
2023/03/09 09:37:54;;;;;;;6.57;1.67;;;;;;;;;;7394743;19;19995;-82
2023/03/09 09:40:20;;;;;;;4.82;1.52;;;;;;;;;;7391034;19;20062;-82
2023/03/09 09:42:46;;;;;;;6.28;1.65;;;;;;;;;;7389968;19;20029;-83
2023/03/09 09:45:33;;;;;;;5.10;1.52;;;;;;;;;;7392627;19;20010;-81
2023/03/09 09:48:03;;;;;;;2.25;0.88;;;;;;;;;;7402653;19;20003;-81
2023/03/09 09:50:57;;;;;;;4.55;1.38;;;;;;;;;;7399906;19;20031;-82
2023/03/09 09:53:47;;;;;;;4.88;1.40;;;;;;;;;;7399641;19;20002;-81
2023/03/09 09:56:18;;;;;;;2.67;1.33;;;;;;;;;;7399487;19;20015;-82
2023/03/09 09:58:47;;;;;;;9.00;1.92;;;;;;;;;;7401940;19;20003;-81
2023/03/09 10:01:18;;;;;;;4.45;1.70;;;;;;;;;;7408608;19;20051;-82
2023/03/09 10:03:48;;;;;;;4.75;1.45;;;;;;;;;;7400648;19;20006;-81
2023/03/09 10:06:19;;;;;;;7.78;1.67;;;;;;;;;;7398911;19;20005;-81
2023/03/09 10:08:50;;;;;;;7.95;1.77;;;;;;;;;;7398682;19;19995;-81
2023/03/09 10:11:30;;;;;;;6.38;1.73;;;;;;;;;;7398984;19;20011;-81
2023/03/09 10:14:32;;;;;;;5.60;1.48;;;;;;;;;;7395141;19;20032;-81
2023/03/09 10:17:04;;;;;;;5.38;1.70;;;;;;;;;;7395579;19;20456;-82
2023/03/09 10:19:40;;;;;;;6.65;1.98;;;;;;;;;;7397213;19;20515;-82
2023/03/09 10:22:12;;;;;;;4.13;1.30;;;;;;;;;;7397084;19;19990;-82
2023/03/09 10:24:50;;;;;;;5.45;1.50;;;;;;;;;;7397241;19;20372;-82
2023/03/09 10:27:30;;;;;;;6.78;1.60;;;;;;;;;;7396741;19;20372;-82
2023/03/09 10:30:10;;;;;;;8.93;1.98;;;;;;;;;;7399727;19;20054;-82
2023/03/09 10:32:40;;;;;;;8.48;1.38;;;;;;;;;;7395520;19;19991;-82
2023/03/09 10:35:35;;;;;;;10.05;1.77;;;;;;;;;;7400165;19;20506;-82
2023/03/09 10:38:00;;;;;;;7.78;1.88;;;;;;;;;;7402340;19;20007;-82
2023/03/09 10:40:35;;;;;;;4.25;1.38;;;;;;;;;;7396524;19;20019;-82
2023/03/09 10:43:00;;;;;;;5.57;1.33;;;;;;;;;;7397633;19;20018;-82
2023/03/09 10:45:28;;;;;;;6.00;1.65;;;;;;;;;;7394358;19;19990;-82
2023/03/09 10:47:56;;;;;;;4.88;1.60;;;;;;;;;;7399942;19;19998;-82
2023/03/09 10:50:28;;;;;;;6.18;1.52;;;;;;;;;;7398829;19;19994;-82
2023/03/09 10:52:54;;;;;;;3.63;1.30;;;;;;;;;;7396068;19;20001;-82
2023/03/09 10:55:26;;;;;;;9.00;1.50;;;;;;;;;;7396338;19;20033;-81
2023/03/09 10:57:59;;;;;;;4.93;1.50;;;;;;;;;;7399983;19;20465;-82
2023/03/09 11:00:25;;;;;;;5.45;1.15;;;;;;;;;;7424058;19;19989;-83
2023/03/09 11:02:54;;;;;;;4.85;1.85;;;;;;;;;;7413629;19;20010;-84
2023/03/09 11:05:25;;;;;;;3.65;1.30;;;;;;;;;;7400144;19;20010;-83
2023/03/09 11:07:57;;;;;;;5.07;1.38;;;;;;;;;;7398399;19;20410;-83
2023/03/09 11:10:30;;;;;;;5.20;1.70;;;;;;;;;;7400136;19;20027;-83
2023/03/09 11:12:57;;;;;;;8.18;1.98;;;;;;;;;;7396912;19;20012;-83
2023/03/09 11:15:25;;;;;;;5.75;1.35;;;;;;;;;;7396983;19;19991;-84
2023/03/09 11:17:50;;;;;;;6.72;1.38;;;;;;;;;;7393189;19;19994;-84
2023/03/09 11:20:29;;;;;;;5.32;1.45;;;;;;;;;;7392375;19;20357;-82
2023/03/09 11:23:16;;;;;;;3.95;1.48;;;;;;;;;;7393035;19;20006;-84
2023/03/09 11:26:09;;;;;;;4.95;1.60;;;;;;;;;;7389571;19;20334;-84
2023/03/09 11:28:52;;;;;;;7.60;1.65;;;;;;;;;;7392799;19;20483;-84
2023/03/09 11:31:31;;;;;;;7.63;1.27;;;;;;;;;;7388109;19;20424;-83
2023/03/09 11:33:58;;;;;;;7.65;1.70;;;;;;;;;;7391214;19;20426;-84
2023/03/09 11:37:02;;;;;;;3.60;1.40;;;;;;;;;;7403094;19;19995;-83
2023/03/09 11:39:28;;;;;;;5.80;1.77;;;;;;;;;;7407597;19;20010;-83
2023/03/09 11:41:55;;;;;;;6.53;1.95;;;;;;;;;;7405438;19;20003;-83
2023/03/09 11:44:29;;;;;;;3.55;1.30;;;;;;;;;;7397498;19;20374;-83
2023/03/09 11:47:01;;;;;;;4.60;1.30;;;;;;;;;;7398019;19;20058;-83
2023/03/09 11:49:27;;;;;;;2.88;1.48;;;;;;;;;;7394544;19;20001;-84
2023/03/09 11:51:53;;;;;;;7.60;1.60;;;;;;;;;;7395232;19;20014;-84
2023/03/09 11:54:35;;;;;;;4.45;1.95;;;;;;;;;;7395827;19;20031;-84
2023/03/09 11:57:07;;;;;;;5.28;1.45;;;;;;;;;;7397260;19;20018;-83
2023/03/09 11:59:43;;;;;;;4.50;1.38;;;;;;;;;;7393636;19;19990;-82
2023/03/09 12:02:47;;;;;;;4.57;1.58;;;;;;;;;;7396603;19;19995;-82
2023/03/09 12:05:15;;;;;;;5.40;1.48;;;;;;;;;;7395804;19;20054;-80
2023/03/09 12:08:16;;;;;;;5.97;1.50;;;;;;;;;;7394591;19;19995;-80
2023/03/09 12:11:03;;;;;;;3.60;1.30;;;;;;;;;;7393417;19;19998;-83
2023/03/09 12:13:34;;;;;;;6.97;1.40;;;;;;;;;;7396721;19;20472;-82
2023/03/09 12:16:18;;;;;;;5.68;1.60;;;;;;;;;;7398027;19;20400;-82
2023/03/09 12:19:07;;;;;;;5.93;1.50;;;;;;;;;;7400889;19;20016;-84
2023/03/09 12:21:36;;;;;;;5.55;1.48;;;;;;;;;;7395434;19;19995;-83
2023/03/09 12:24:19;;;;;;;4.40;1.25;;;;;;;;;;7394485;19;20002;-84
2023/03/09 12:26:44;;;;;;;5.80;1.67;;;;;;;;;;7396727;19;20005;-82
2023/03/09 12:29:13;;;;;;;5.97;1.58;;;;;;;;;;7394052;19;20003;-83
2023/03/09 12:31:39;;;;;;;8.18;2.08;;;;;;;;;;7393057;19;20026;-82
2023/03/09 12:34:08;;;;;;;6.80;1.60;;;;;;;;;;7389155;19;20023;-82
2023/03/09 12:36:41;;;;;;;4.13;1.50;;;;;;;;;;7393042;19;20019;-81
2023/03/09 12:39:22;;;;;;;6.07;1.60;;;;;;;;;;7395971;19;19999;-81
2023/03/09 12:42:21;;;;;;;8.20;2.00;;;;;;;;;;7391430;19;20461;-82
2023/03/09 12:44:46;;;;;;;6.97;1.90;;;;;;;;;;7392760;19;20616;-82
2023/03/09 12:47:25;;;;;;;7.53;1.83;;;;;;;;;;7397236;19;20057;-83
2023/03/09 12:49:53;;;;;;;5.50;1.90;;;;;;;;;;7394492;19;19997;-84
2023/03/09 12:52:39;;;;;;;10.05;2.05;;;;;;;;;;7392521;19;20020;-83
2023/03/09 12:55:15;;;;;;;9.52;2.10;;;;;;;;;;7395719;19;20002;-84
2023/03/09 12:57:42;;;;;;;8.65;2.13;;;;;;;;;;7394243;19;20031;-85
2023/03/09 13:00:31;;;;;;;5.65;1.73;;;;;;;;;;7393748;19;20028;-82
2023/03/09 13:03:13;;;;;;;6.30;2.35;;;;;;;;;;7393129;19;20062;-82
2023/03/09 13:05:49;;;;;;;9.75;1.85;;;;;;;;;;7389893;19;19998;-74
2023/03/09 13:08:22;;;;;;;5.07;1.45;;;;;;;;;;7392608;19;20354;-73
2023/03/09 13:10:48;;;;;;;6.68;1.83;;;;;;;;;;7391866;19;19999;-73
2023/03/09 13:13:41;;;;;;;12.23;2.20;;;;;;;;;;7391317;19;20475;-74
2023/03/09 13:16:31;;;;;;;4.13;1.70;;;;;;;;;;7390840;19;20002;-74
2023/03/09 13:19:17;;;;;;;9.30;2.20;;;;;;;;;;7391924;19;20489;-74
2023/03/09 13:21:48;;;;;;;5.65;2.00;;;;;;;;;;7387528;19;20001;-73
2023/03/09 13:24:36;;;;;;;5.43;2.05;;;;;;;;;;7389355;19;19999;-73
2023/03/09 13:27:04;;;;;;;5.00;1.67;;;;;;;;;;7392418;19;20031;-75
2023/03/09 13:29:29;;;;;;;6.95;1.70;;;;;;;;;;7388972;19;19998;-74
2023/03/09 13:31:56;;;;;;;7.07;1.77;;;;;;;;;;7389111;19;20079;-74
2023/03/09 13:34:27;;;;;;;9.95;1.85;;;;;;;;;;7387865;19;20038;-74
2023/03/09 13:36:58;;;;;;;5.15;1.85;;;;;;;;;;7389469;19;19998;-75
2023/03/09 13:39:24;;;;;;;5.13;1.83;;;;;;;;;;7382372;19;20005;-75
2023/03/09 13:41:51;;;;;;;6.32;1.85;;;;;;;;;;7382246;19;20392;-74
2023/03/09 13:44:21;;;;;;;6.85;2.50;;;;;;;;;;7381670;19;20028;-74
2023/03/09 13:46:49;;;;;;;8.60;1.70;;;;;;;;;;7390911;19;20098;-74
2023/03/09 13:49:21;;;;;;;8.02;1.67;;;;;;;;;;7390914;19;20009;-74
2023/03/09 13:51:50;;;;;;;5.18;1.45;;;;;;;;;;7388570;19;20035;-83
2023/03/09 13:54:30;;;;;;;7.57;1.60;;;;;;;;;;7389126;19;20002;-80
2023/03/09 13:57:12;;;;;;;8.15;1.80;;;;;;;;;;7390213;19;19995;-82
2023/03/09 13:59:59;;;;;;;5.68;1.40;;;;;;;;;;7392666;19;20019;-84
2023/03/09 14:02:28;;;;;;;3.58;1.50;;;;;;;;;;7390943;19;20019;-83
2023/03/09 14:04:56;;;;;;;5.05;1.63;;;;;;;;;;7389330;19;19999;-84
2023/03/09 14:07:24;;;;;;;9.35;1.55;;;;;;;;;;7393816;19;20001;-83
2023/03/09 14:10:01;;;;;;;5.10;1.67;;;;;;;;;;7390131;19;20029;-83
2023/03/09 14:12:30;;;;;;;5.93;1.50;;;;;;;;;;7390204;19;20033;-82
2023/03/09 14:14:57;;;;;;;5.90;1.65;;;;;;;;;;7388490;19;20011;-83
2023/03/09 14:17:23;;;;;;;6.63;1.67;;;;;;;;;;7392559;19;20362;-83
2023/03/09 14:19:53;;;;;;;7.93;1.60;;;;;;;;;;7389062;19;20019;-82
2023/03/09 14:22:25;;;;;;;9.27;1.83;;;;;;;;;;7386931;19;19999;-82
2023/03/09 14:24:50;;;;;;;7.50;1.85;;;;;;;;;;7384899;19;20761;-81
2023/03/09 14:27:31;;;;;;;7.82;2.42;;;;;;;;;;7390566;19;20003;-80
2023/03/09 14:29:57;;;;;;;;;;;;;;;;;;7389862;19;20016;-81
2023/03/09 14:32:27;;;;;;;4.28;1.90;;;;;;;;;;7387000;19;19915;-81
2023/03/09 14:34:54;;;;;;;10.37;2.47;;;;;;;;;;7395356;19;20330;-81
2023/03/09 14:37:22;;;;;;;7.70;2.00;;;;;;;;;;7397685;19;20019;-81
2023/03/09 14:39:48;;;;;;;7.07;2.03;;;;;;;;;;7395088;19;20011;-81
2023/03/09 14:42:18;;;;;;;7.25;1.92;;;;;;;;;;7396714;19;20001;-82
2023/03/09 14:44:46;;;;;;;7.38;2.25;;;;;;;;;;7393007;19;20337;-83
2023/03/09 14:47:19;;;;;;;8.00;2.10;;;;;;;;;;7399959;19;19999;-82
2023/03/09 14:49:51;;;;;;;6.25;1.88;;;;;;;;;;7394511;19;20011;-84
2023/03/09 14:52:16;;;;;;;;;;;;;;;;;;7397019;19;20003;-82
2023/03/09 14:54:42;;;;;;;7.47;2.30;;;;;;;;;;7394793;19;19915;-84